createdAt,value
2022-10-13T00:03:39.719Z,100
2022-10-13T00:13:39.723Z,100
2022-10-13T00:23:39.685Z,100
2022-10-13T00:33:39.715Z,100
2022-10-13T00:43:39.699Z,100
2022-10-13T00:53:39.732Z,100
2022-10-13T01:03:39.713Z,100
2022-10-13T01:13:39.848Z,100
2022-10-13T01:23:39.697Z,100
2022-10-13T01:33:39.694Z,100
2022-10-13T01:43:39.677Z,100
2022-10-13T01:53:39.712Z,100
2022-10-13T02:03:39.690Z,100
2022-10-13T02:13:39.719Z,100
2022-10-13T02:23:39.673Z,100
2022-10-13T02:33:39.725Z,100
2022-10-13T02:43:39.686Z,100
2022-10-13T02:53:39.788Z,100
2022-10-13T03:03:39.650Z,100
2022-10-13T03:13:39.726Z,100
2022-10-13T03:23:39.658Z,100
2022-10-13T03:33:39.690Z,100
2022-10-13T03:43:39.716Z,100
2022-10-13T03:53:39.667Z,100
2022-10-13T04:03:39.637Z,100
2022-10-13T04:13:39.794Z,100
2022-10-13T04:23:39.655Z,100
2022-10-13T04:33:39.711Z,100
2022-10-13T04:43:39.668Z,100
2022-10-13T04:53:39.673Z,100
2022-10-13T05:03:39.656Z,100
2022-10-13T05:13:39.697Z,100
2022-10-13T05:23:39.642Z,100
2022-10-13T05:33:39.667Z,100
2022-10-13T05:43:39.659Z,100
2022-10-13T05:53:39.660Z,100
2022-10-13T06:03:39.636Z,100
2022-10-13T06:13:39.641Z,100
2022-10-13T06:23:39.635Z,100
2022-10-13T06:33:39.650Z,100
2022-10-13T06:43:40.545Z,100
2022-10-13T06:53:39.675Z,100
2022-10-13T07:03:39.618Z,100
2022-10-13T07:13:42.122Z,100
2022-10-13T07:23:39.614Z,100
2022-10-13T07:33:39.740Z,100
2022-10-13T07:43:39.608Z,100
2022-10-13T07:53:39.629Z,100
2022-10-13T08:03:40.912Z,100
2022-10-13T08:13:39.603Z,100
2022-10-13T08:23:39.606Z,100
2022-10-13T08:33:39.609Z,100
2022-10-13T08:43:49.137Z,100
2022-10-13T08:53:39.594Z,100
2022-10-13T09:03:39.565Z,100
2022-10-13T09:13:39.603Z,100
2022-10-13T09:23:41.107Z,100
2022-10-13T09:33:39.554Z,100
2022-10-13T09:43:39.533Z,100
2022-10-13T09:53:39.560Z,100
2022-10-13T10:03:39.567Z,100
2022-10-13T10:13:39.537Z,100
2022-10-13T10:23:39.510Z,93
2022-10-13T10:33:39.569Z,85
2022-10-13T10:53:39.472Z,72
2022-10-13T11:03:39.444Z,72
2022-10-13T11:13:39.479Z,69
2022-10-13T11:23:39.431Z,67
2022-10-13T11:33:39.614Z,74
2022-10-13T11:43:39.455Z,75
2022-10-13T11:53:39.448Z,75
2022-10-13T12:03:39.438Z,77
2022-10-13T12:13:39.435Z,76
2022-10-13T12:23:39.417Z,77
2022-10-13T12:33:39.436Z,77
2022-10-13T12:43:39.393Z,73
2022-10-13T12:53:39.383Z,75
2022-10-13T13:03:39.367Z,73
2022-10-13T13:13:39.430Z,73
2022-10-13T13:23:39.334Z,71
2022-10-13T13:33:39.396Z,74
2022-10-13T13:43:39.334Z,73
2022-10-13T13:53:39.380Z,76
2022-10-13T14:03:39.298Z,79
2022-10-13T14:13:39.373Z,80
2022-10-13T14:23:39.291Z,84
2022-10-13T14:33:39.322Z,85
2022-10-13T14:43:39.271Z,91
2022-10-13T14:53:39.274Z,94
2022-10-13T15:03:39.286Z,94
2022-10-13T15:13:39.328Z,100
2022-10-13T15:23:39.251Z,96
2022-10-13T15:33:39.258Z,100
2022-10-13T15:43:39.254Z,96
2022-10-13T15:53:39.235Z,100
2022-10-13T16:03:39.203Z,100
2022-10-13T16:13:39.233Z,100
2022-10-13T16:23:39.201Z,100
2022-10-13T16:33:39.224Z,100
2022-10-13T16:43:39.193Z,100
2022-10-13T16:53:39.202Z,100
2022-10-13T17:03:39.158Z,100
2022-10-13T17:13:39.176Z,100
2022-10-13T17:23:39.159Z,100
2022-10-13T17:33:39.162Z,100
2022-10-13T17:43:39.134Z,100
2022-10-13T17:53:39.182Z,100
2022-10-13T18:03:39.113Z,100
2022-10-13T18:13:39.229Z,100
2022-10-13T18:23:39.133Z,100
2022-10-13T18:33:39.134Z,100
2022-10-13T18:43:39.095Z,100
2022-10-13T18:53:39.281Z,100
2022-10-13T19:03:39.098Z,100
2022-10-13T19:13:39.110Z,100
2022-10-13T19:23:39.092Z,100
2022-10-13T19:33:43.538Z,100
2022-10-13T19:43:39.092Z,100
2022-10-13T19:53:39.104Z,100
2022-10-13T20:03:39.089Z,100
2022-10-13T20:13:39.081Z,100
2022-10-13T20:23:39.082Z,100
2022-10-13T20:33:39.106Z,100
2022-10-13T20:43:39.089Z,100
2022-10-13T20:53:39.089Z,100
2022-10-13T21:03:39.033Z,100
2022-10-13T21:13:39.075Z,100
2022-10-13T21:23:39.052Z,100
2022-10-13T21:33:39.058Z,100
2022-10-13T21:43:39.056Z,100
2022-10-13T21:53:39.054Z,100
2022-10-13T22:03:39.045Z,100
2022-10-13T22:13:39.056Z,100
2022-10-13T22:23:39.022Z,100
2022-10-13T22:33:39.048Z,100
2022-10-13T22:43:39.037Z,100
2022-10-13T22:53:39.048Z,100
2022-10-13T23:03:39.099Z,100
2022-10-13T23:13:39.038Z,100
2022-10-13T23:23:39.011Z,100
2022-10-13T23:33:39.055Z,100
2022-10-13T23:43:38.991Z,100
2022-10-13T23:53:39.043Z,100
